sensor_id;sensor_type;location;lat;lon;timestamp;P1;durP1;ratioP1;P2;durP2;ratioP2
1507;SDS011;745;48.586;10.032;2022-08-03T00:00:30;1.93;;;1.83;;
1507;SDS011;745;48.586;10.032;2022-08-03T00:05:01;2.73;;;2.53;;
1507;SDS011;745;48.586;10.032;2022-08-03T00:09:31;2.33;;;2.13;;
1507;SDS011;745;48.586;10.032;2022-08-03T00:14:03;2.57;;;2.37;;
1507;SDS011;745;48.586;10.032;2022-08-03T00:18:35;2.30;;;2.10;;
1507;SDS011;745;48.586;10.032;2022-08-03T00:23:06;2.33;;;2.17;;
1507;SDS011;745;48.586;10.032;2022-08-03T00:27:36;2.00;;;1.90;;
1507;SDS011;745;48.586;10.032;2022-08-03T00:32:08;2.30;;;2.10;;
1507;SDS011;745;48.586;10.032;2022-08-03T00:36:38;2.50;;;2.30;;
1507;SDS011;745;48.586;10.032;2022-08-03T00:41:09;2.30;;;2.00;;
1507;SDS011;745;48.586;10.032;2022-08-03T00:45:42;2.07;;;1.97;;
1507;SDS011;745;48.586;10.032;2022-08-03T00:50:13;2.17;;;2.07;;
1507;SDS011;745;48.586;10.032;2022-08-03T00:54:43;2.37;;;2.17;;
1507;SDS011;745;48.586;10.032;2022-08-03T00:59:14;2.37;;;2.17;;
1507;SDS011;745;48.586;10.032;2022-08-03T01:03:45;2.70;;;2.50;;
1507;SDS011;745;48.586;10.032;2022-08-03T01:08:19;2.17;;;2.07;;
1507;SDS011;745;48.586;10.032;2022-08-03T01:13:02;2.30;;;2.10;;
1507;SDS011;745;48.586;10.032;2022-08-03T01:32:51;2.07;;;1.97;;
1507;SDS011;745;48.586;10.032;2022-08-03T01:37:25;2.60;;;2.40;;
1507;SDS011;745;48.586;10.032;2022-08-03T01:42:03;2.33;;;2.13;;
1507;SDS011;745;48.586;10.032;2022-08-03T01:46:35;3.20;;;2.47;;
1507;SDS011;745;48.586;10.032;2022-08-03T01:51:07;2.83;;;2.63;;
1507;SDS011;745;48.586;10.032;2022-08-03T01:55:38;2.20;;;2.10;;
1507;SDS011;745;48.586;10.032;2022-08-03T02:00:09;2.33;;;2.13;;
1507;SDS011;745;48.586;10.032;2022-08-03T02:04:41;2.73;;;2.53;;
1507;SDS011;745;48.586;10.032;2022-08-03T02:09:12;2.50;;;2.30;;
1507;SDS011;745;48.586;10.032;2022-08-03T02:13:44;2.80;;;2.60;;
1507;SDS011;745;48.586;10.032;2022-08-03T02:18:14;2.80;;;2.60;;
1507;SDS011;745;48.586;10.032;2022-08-03T02:22:45;2.87;;;2.67;;
1507;SDS011;745;48.586;10.032;2022-08-03T02:27:17;2.80;;;2.60;;
1507;SDS011;745;48.586;10.032;2022-08-03T02:31:49;2.90;;;2.70;;
1507;SDS011;745;48.586;10.032;2022-08-03T02:36:22;2.87;;;2.67;;
1507;SDS011;745;48.586;10.032;2022-08-03T02:40:59;2.77;;;2.57;;
1507;SDS011;745;48.586;10.032;2022-08-03T02:45:31;2.73;;;2.50;;
1507;SDS011;745;48.586;10.032;2022-08-03T02:50:05;2.60;;;2.40;;
1507;SDS011;745;48.586;10.032;2022-08-03T02:54:37;2.97;;;2.77;;
1507;SDS011;745;48.586;10.032;2022-08-03T02:59:09;2.70;;;2.50;;
1507;SDS011;745;48.586;10.032;2022-08-03T03:03:41;2.90;;;2.70;;
1507;SDS011;745;48.586;10.032;2022-08-03T03:08:12;2.67;;;2.47;;
1507;SDS011;745;48.586;10.032;2022-08-03T03:12:43;2.53;;;2.33;;
1507;SDS011;745;48.586;10.032;2022-08-03T03:17:14;2.57;;;2.37;;
1507;SDS011;745;48.586;10.032;2022-08-03T03:21:46;2.67;;;2.47;;
1507;SDS011;745;48.586;10.032;2022-08-03T03:26:17;2.97;;;2.77;;
1507;SDS011;745;48.586;10.032;2022-08-03T03:30:48;2.30;;;2.20;;
1507;SDS011;745;48.586;10.032;2022-08-03T03:35:19;2.77;;;2.57;;
1507;SDS011;745;48.586;10.032;2022-08-03T03:39:49;2.80;;;2.60;;
1507;SDS011;745;48.586;10.032;2022-08-03T03:44:19;2.73;;;2.53;;
1507;SDS011;745;48.586;10.032;2022-08-03T03:48:50;3.37;;;3.00;;
1507;SDS011;745;48.586;10.032;2022-08-03T03:53:21;2.77;;;2.57;;
1507;SDS011;745;48.586;10.032;2022-08-03T03:57:51;2.77;;;2.57;;
1507;SDS011;745;48.586;10.032;2022-08-03T04:02:22;3.23;;;2.93;;
1507;SDS011;745;48.586;10.032;2022-08-03T04:06:53;2.70;;;2.50;;
1507;SDS011;745;48.586;10.032;2022-08-03T04:11:44;2.70;;;2.50;;
1507;SDS011;745;48.586;10.032;2022-08-03T04:16:19;3.20;;;2.90;;
1507;SDS011;745;48.586;10.032;2022-08-03T04:20:51;2.73;;;2.53;;
1507;SDS011;745;48.586;10.032;2022-08-03T04:25:23;3.33;;;3.03;;
1507;SDS011;745;48.586;10.032;2022-08-03T04:29:56;2.67;;;2.47;;
1507;SDS011;745;48.586;10.032;2022-08-03T04:34:26;2.73;;;2.53;;
1507;SDS011;745;48.586;10.032;2022-08-03T04:39:04;2.83;;;2.60;;
1507;SDS011;745;48.586;10.032;2022-08-03T04:43:37;2.83;;;2.63;;
1507;SDS011;745;48.586;10.032;2022-08-03T04:48:11;2.73;;;2.53;;
1507;SDS011;745;48.586;10.032;2022-08-03T04:52:43;2.90;;;2.70;;
1507;SDS011;745;48.586;10.032;2022-08-03T04:57:14;2.73;;;2.53;;
1507;SDS011;745;48.586;10.032;2022-08-03T05:01:45;2.37;;;2.17;;
1507;SDS011;745;48.586;10.032;2022-08-03T05:06:16;2.40;;;2.20;;
1507;SDS011;745;48.586;10.032;2022-08-03T05:10:46;2.83;;;2.17;;
1507;SDS011;745;48.586;10.032;2022-08-03T05:15:17;2.73;;;2.53;;
1507;SDS011;745;48.586;10.032;2022-08-03T05:19:48;3.00;;;2.07;;
1507;SDS011;745;48.586;10.032;2022-08-03T05:24:18;2.30;;;2.10;;
1507;SDS011;745;48.586;10.032;2022-08-03T05:28:48;2.70;;;2.50;;
1507;SDS011;745;48.586;10.032;2022-08-03T05:33:19;2.20;;;2.00;;
1507;SDS011;745;48.586;10.032;2022-08-03T05:37:50;2.60;;;2.40;;
1507;SDS011;745;48.586;10.032;2022-08-03T05:42:20;2.40;;;2.20;;
1507;SDS011;745;48.586;10.032;2022-08-03T05:46:51;2.30;;;2.20;;
1507;SDS011;745;48.586;10.032;2022-08-03T05:51:22;2.60;;;2.43;;
1507;SDS011;745;48.586;10.032;2022-08-03T05:55:53;2.30;;;2.20;;
1507;SDS011;745;48.586;10.032;2022-08-03T06:00:24;2.20;;;2.10;;
1507;SDS011;745;48.586;10.032;2022-08-03T06:04:55;2.50;;;2.30;;
1507;SDS011;745;48.586;10.032;2022-08-03T06:09:26;2.63;;;2.43;;
1507;SDS011;745;48.586;10.032;2022-08-03T06:13:57;2.60;;;2.40;;
1507;SDS011;745;48.586;10.032;2022-08-03T06:18:28;2.60;;;2.40;;
1507;SDS011;745;48.586;10.032;2022-08-03T06:22:58;2.60;;;2.40;;
1507;SDS011;745;48.586;10.032;2022-08-03T06:27:29;2.73;;;2.50;;
1507;SDS011;745;48.586;10.032;2022-08-03T06:32:00;1.90;;;1.80;;
1507;SDS011;745;48.586;10.032;2022-08-03T06:36:30;2.20;;;2.00;;
1507;SDS011;745;48.586;10.032;2022-08-03T06:41:01;2.27;;;2.07;;
1507;SDS011;745;48.586;10.032;2022-08-03T06:45:32;2.07;;;1.90;;
1507;SDS011;745;48.586;10.032;2022-08-03T06:50:03;2.67;;;2.33;;
1507;SDS011;745;48.586;10.032;2022-08-03T06:54:35;2.20;;;2.10;;
1507;SDS011;745;48.586;10.032;2022-08-03T06:59:05;2.70;;;2.20;;
1507;SDS011;745;48.586;10.032;2022-08-03T07:03:36;3.60;;;2.60;;
1507;SDS011;745;48.586;10.032;2022-08-03T07:08:06;2.00;;;1.90;;
1507;SDS011;745;48.586;10.032;2022-08-03T07:12:38;2.47;;;2.27;;
1507;SDS011;745;48.586;10.032;2022-08-03T07:17:09;2.30;;;2.10;;
1507;SDS011;745;48.586;10.032;2022-08-03T07:21:40;2.27;;;2.17;;
1507;SDS011;745;48.586;10.032;2022-08-03T07:26:10;2.30;;;2.20;;
1507;SDS011;745;48.586;10.032;2022-08-03T07:30:41;2.40;;;2.20;;
1507;SDS011;745;48.586;10.032;2022-08-03T07:35:12;2.87;;;2.67;;
1507;SDS011;745;48.586;10.032;2022-08-03T07:39:42;2.97;;;2.77;;
1507;SDS011;745;48.586;10.032;2022-08-03T07:44:13;2.60;;;2.40;;
1507;SDS011;745;48.586;10.032;2022-08-03T07:48:44;2.70;;;2.50;;
1507;SDS011;745;48.586;10.032;2022-08-03T07:53:14;2.87;;;2.40;;
1507;SDS011;745;48.586;10.032;2022-08-03T07:57:45;2.57;;;2.37;;
1507;SDS011;745;48.586;10.032;2022-08-03T08:02:16;2.20;;;2.10;;
1507;SDS011;745;48.586;10.032;2022-08-03T08:06:47;2.60;;;2.40;;
1507;SDS011;745;48.586;10.032;2022-08-03T08:11:17;2.47;;;2.27;;
1507;SDS011;745;48.586;10.032;2022-08-03T08:15:49;2.40;;;2.20;;
1507;SDS011;745;48.586;10.032;2022-08-03T08:20:30;2.40;;;2.20;;
1507;SDS011;745;48.586;10.032;2022-08-03T08:25:03;2.50;;;2.30;;
1507;SDS011;745;48.586;10.032;2022-08-03T08:29:34;3.30;;;2.10;;
1507;SDS011;745;48.586;10.032;2022-08-03T08:34:04;2.50;;;2.30;;
1507;SDS011;745;48.586;10.032;2022-08-03T08:38:36;2.27;;;2.00;;
1507;SDS011;745;48.586;10.032;2022-08-03T08:43:06;2.57;;;2.37;;
1507;SDS011;745;48.586;10.032;2022-08-03T08:47:38;2.23;;;2.00;;
1507;SDS011;745;48.586;10.032;2022-08-03T08:52:09;2.17;;;2.00;;
1507;SDS011;745;48.586;10.032;2022-08-03T08:56:40;2.17;;;1.97;;
1507;SDS011;745;48.586;10.032;2022-08-03T09:01:11;2.37;;;2.17;;
1507;SDS011;745;48.586;10.032;2022-08-03T09:05:41;2.30;;;2.10;;
1507;SDS011;745;48.586;10.032;2022-08-03T09:10:13;2.30;;;2.10;;
1507;SDS011;745;48.586;10.032;2022-08-03T09:14:47;2.30;;;2.10;;
1507;SDS011;745;48.586;10.032;2022-08-03T09:19:18;2.07;;;1.87;;
1507;SDS011;745;48.586;10.032;2022-08-03T09:23:50;2.30;;;2.10;;
1507;SDS011;745;48.586;10.032;2022-08-03T09:28:24;2.37;;;2.17;;
1507;SDS011;745;48.586;10.032;2022-08-03T09:33:04;2.10;;;1.90;;
1507;SDS011;745;48.586;10.032;2022-08-03T09:37:39;2.00;;;1.90;;
1507;SDS011;745;48.586;10.032;2022-08-03T09:42:11;2.03;;;1.83;;
1507;SDS011;745;48.586;10.032;2022-08-03T09:46:49;2.33;;;1.80;;
1507;SDS011;745;48.586;10.032;2022-08-03T09:51:23;2.30;;;2.10;;
1507;SDS011;745;48.586;10.032;2022-08-03T09:55:58;2.00;;;1.90;;
1507;SDS011;745;48.586;10.032;2022-08-03T10:00:30;2.10;;;1.90;;
1507;SDS011;745;48.586;10.032;2022-08-03T10:05:01;2.07;;;1.97;;
1507;SDS011;745;48.586;10.032;2022-08-03T10:09:32;2.20;;;2.00;;
1507;SDS011;745;48.586;10.032;2022-08-03T10:14:03;2.40;;;2.20;;
1507;SDS011;745;48.586;10.032;2022-08-03T10:18:35;2.10;;;2.00;;
1507;SDS011;745;48.586;10.032;2022-08-03T10:23:05;1.90;;;1.80;;
1507;SDS011;745;48.586;10.032;2022-08-03T10:27:39;2.33;;;2.13;;
1507;SDS011;745;48.586;10.032;2022-08-03T10:37:06;2.30;;;2.10;;
1507;SDS011;745;48.586;10.032;2022-08-03T10:41:39;2.20;;;2.00;;
1507;SDS011;745;48.586;10.032;2022-08-03T10:46:16;2.20;;;2.00;;
1507;SDS011;745;48.586;10.032;2022-08-03T10:50:48;2.30;;;1.93;;
1507;SDS011;745;48.586;10.032;2022-08-03T11:00:47;1.80;;;1.70;;
1507;SDS011;745;48.586;10.032;2022-08-03T11:05:25;1.90;;;1.80;;
1507;SDS011;745;48.586;10.032;2022-08-03T11:10:00;2.23;;;2.03;;
1507;SDS011;745;48.586;10.032;2022-08-03T11:14:30;2.20;;;1.90;;
1507;SDS011;745;48.586;10.032;2022-08-03T11:19:16;2.23;;;2.03;;
1507;SDS011;745;48.586;10.032;2022-08-03T11:23:51;2.33;;;2.00;;
1507;SDS011;745;48.586;10.032;2022-08-03T11:28:28;2.20;;;2.00;;
1507;SDS011;745;48.586;10.032;2022-08-03T11:32:59;2.40;;;2.20;;
1507;SDS011;745;48.586;10.032;2022-08-03T11:37:29;2.80;;;2.07;;
1507;SDS011;745;48.586;10.032;2022-08-03T11:42:00;2.17;;;1.90;;
1507;SDS011;745;48.586;10.032;2022-08-03T11:46:53;2.30;;;1.90;;
1507;SDS011;745;48.586;10.032;2022-08-03T11:55:59;2.03;;;1.93;;
1507;SDS011;745;48.586;10.032;2022-08-03T12:00:31;2.23;;;2.10;;
1507;SDS011;745;48.586;10.032;2022-08-03T12:05:02;2.67;;;2.47;;
1507;SDS011;745;48.586;10.032;2022-08-03T12:09:32;1.97;;;1.87;;
1507;SDS011;745;48.586;10.032;2022-08-03T12:14:05;2.10;;;1.90;;
1507;SDS011;745;48.586;10.032;2022-08-03T12:18:36;2.33;;;1.80;;
1507;SDS011;745;48.586;10.032;2022-08-03T12:23:07;2.83;;;2.20;;
1507;SDS011;745;48.586;10.032;2022-08-03T12:27:38;1.87;;;1.77;;
1507;SDS011;745;48.586;10.032;2022-08-03T12:32:13;2.47;;;2.27;;
1507;SDS011;745;48.586;10.032;2022-08-03T12:36:51;2.17;;;1.97;;
1507;SDS011;745;48.586;10.032;2022-08-03T12:41:33;2.30;;;2.10;;
1507;SDS011;745;48.586;10.032;2022-08-03T12:46:09;2.17;;;2.00;;
1507;SDS011;745;48.586;10.032;2022-08-03T12:50:40;2.23;;;2.03;;
1507;SDS011;745;48.586;10.032;2022-08-03T12:55:17;2.00;;;1.90;;
1507;SDS011;745;48.586;10.032;2022-08-03T12:59:49;2.07;;;1.97;;
1507;SDS011;745;48.586;10.032;2022-08-03T13:09:00;2.30;;;2.10;;
1507;SDS011;745;48.586;10.032;2022-08-03T13:13:37;1.90;;;1.77;;
1507;SDS011;745;48.586;10.032;2022-08-03T13:18:08;2.07;;;1.90;;
1507;SDS011;745;48.586;10.032;2022-08-03T13:22:40;1.70;;;1.60;;
1507;SDS011;745;48.586;10.032;2022-08-03T13:27:12;2.10;;;2.00;;
1507;SDS011;745;48.586;10.032;2022-08-03T13:31:42;2.07;;;1.87;;
1507;SDS011;745;48.586;10.032;2022-08-03T13:36:13;1.90;;;1.80;;
1507;SDS011;745;48.586;10.032;2022-08-03T13:40:44;2.00;;;1.90;;
1507;SDS011;745;48.586;10.032;2022-08-03T13:45:14;2.10;;;2.00;;
1507;SDS011;745;48.586;10.032;2022-08-03T13:49:46;2.00;;;1.90;;
1507;SDS011;745;48.586;10.032;2022-08-03T13:54:16;1.70;;;1.60;;
1507;SDS011;745;48.586;10.032;2022-08-03T13:58:48;1.90;;;1.80;;
1507;SDS011;745;48.586;10.032;2022-08-03T14:03:18;2.27;;;1.90;;
1507;SDS011;745;48.586;10.032;2022-08-03T14:07:49;2.23;;;2.03;;
1507;SDS011;745;48.586;10.032;2022-08-03T14:12:19;2.00;;;1.90;;
1507;SDS011;745;48.586;10.032;2022-08-03T14:16:50;1.90;;;1.80;;
1507;SDS011;745;48.586;10.032;2022-08-03T14:21:20;2.00;;;1.80;;
1507;SDS011;745;48.586;10.032;2022-08-03T14:25:51;2.07;;;1.90;;
1507;SDS011;745;48.586;10.032;2022-08-03T14:30:21;2.40;;;2.20;;
1507;SDS011;745;48.586;10.032;2022-08-03T14:34:52;1.87;;;1.77;;
1507;SDS011;745;48.586;10.032;2022-08-03T14:39:22;2.10;;;2.00;;
1507;SDS011;745;48.586;10.032;2022-08-03T14:43:53;1.97;;;1.87;;
1507;SDS011;745;48.586;10.032;2022-08-03T14:48:25;2.23;;;2.03;;
1507;SDS011;745;48.586;10.032;2022-08-03T14:52:56;2.07;;;1.97;;
1507;SDS011;745;48.586;10.032;2022-08-03T14:57:27;2.13;;;1.93;;
1507;SDS011;745;48.586;10.032;2022-08-03T15:01:57;2.43;;;2.23;;
1507;SDS011;745;48.586;10.032;2022-08-03T15:06:28;4.10;;;2.07;;
1507;SDS011;745;48.586;10.032;2022-08-03T15:10:58;1.97;;;1.87;;
1507;SDS011;745;48.586;10.032;2022-08-03T15:15:29;1.90;;;1.70;;
1507;SDS011;745;48.586;10.032;2022-08-03T15:19:59;2.40;;;2.10;;
1507;SDS011;745;48.586;10.032;2022-08-03T15:24:30;2.10;;;1.90;;
1507;SDS011;745;48.586;10.032;2022-08-03T15:29:01;2.23;;;2.07;;
1507;SDS011;745;48.586;10.032;2022-08-03T15:33:32;2.00;;;1.90;;
1507;SDS011;745;48.586;10.032;2022-08-03T15:38:03;1.67;;;1.57;;
1507;SDS011;745;48.586;10.032;2022-08-03T15:42:33;2.00;;;1.90;;
1507;SDS011;745;48.586;10.032;2022-08-03T15:47:04;5.10;;;2.10;;
1507;SDS011;745;48.586;10.032;2022-08-03T15:51:35;1.97;;;1.80;;
1507;SDS011;745;48.586;10.032;2022-08-03T15:56:07;2.13;;;1.93;;
1507;SDS011;745;48.586;10.032;2022-08-03T16:00:39;2.30;;;2.10;;
1507;SDS011;745;48.586;10.032;2022-08-03T16:05:11;2.53;;;2.33;;
1507;SDS011;745;48.586;10.032;2022-08-03T16:09:41;2.30;;;2.10;;
1507;SDS011;745;48.586;10.032;2022-08-03T16:14:12;4.50;;;2.37;;
1507;SDS011;745;48.586;10.032;2022-08-03T16:18:42;2.10;;;2.00;;
1507;SDS011;745;48.586;10.032;2022-08-03T16:23:14;2.13;;;2.03;;
1507;SDS011;745;48.586;10.032;2022-08-03T16:27:47;2.30;;;2.10;;
1507;SDS011;745;48.586;10.032;2022-08-03T16:32:18;2.20;;;2.00;;
1507;SDS011;745;48.586;10.032;2022-08-03T16:36:48;2.03;;;1.93;;
1507;SDS011;745;48.586;10.032;2022-08-03T16:41:19;1.80;;;1.70;;
1507;SDS011;745;48.586;10.032;2022-08-03T16:45:50;1.77;;;1.67;;
1507;SDS011;745;48.586;10.032;2022-08-03T16:50:20;1.90;;;1.80;;
1507;SDS011;745;48.586;10.032;2022-08-03T16:54:53;2.30;;;2.10;;
1507;SDS011;745;48.586;10.032;2022-08-03T16:59:24;1.90;;;1.80;;
1507;SDS011;745;48.586;10.032;2022-08-03T17:03:56;2.17;;;1.97;;
1507;SDS011;745;48.586;10.032;2022-08-03T17:08:28;2.20;;;2.00;;
1507;SDS011;745;48.586;10.032;2022-08-03T17:12:58;2.00;;;1.90;;
1507;SDS011;745;48.586;10.032;2022-08-03T17:17:30;2.07;;;1.87;;
1507;SDS011;745;48.586;10.032;2022-08-03T17:22:12;1.87;;;1.77;;
1507;SDS011;745;48.586;10.032;2022-08-03T17:26:48;1.90;;;1.80;;
1507;SDS011;745;48.586;10.032;2022-08-03T17:31:20;1.70;;;1.60;;
1507;SDS011;745;48.586;10.032;2022-08-03T17:35:53;1.60;;;1.50;;
1507;SDS011;745;48.586;10.032;2022-08-03T17:40:25;2.20;;;2.00;;
1507;SDS011;745;48.586;10.032;2022-08-03T17:44:56;1.43;;;1.33;;
1507;SDS011;745;48.586;10.032;2022-08-03T17:49:27;1.70;;;1.60;;
1507;SDS011;745;48.586;10.032;2022-08-03T18:03:53;1.50;;;1.40;;
1507;SDS011;745;48.586;10.032;2022-08-03T18:08:30;1.43;;;1.33;;
1507;SDS011;745;48.586;10.032;2022-08-03T18:13:03;1.40;;;1.30;;
1507;SDS011;745;48.586;10.032;2022-08-03T18:17:35;1.53;;;1.43;;
1507;SDS011;745;48.586;10.032;2022-08-03T18:22:07;1.60;;;1.50;;
1507;SDS011;745;48.586;10.032;2022-08-03T18:26:38;1.50;;;1.40;;
1507;SDS011;745;48.586;10.032;2022-08-03T18:31:10;2.23;;;1.70;;
1507;SDS011;745;48.586;10.032;2022-08-03T18:35:41;1.70;;;1.50;;
1507;SDS011;745;48.586;10.032;2022-08-03T18:40:13;1.63;;;1.53;;
1507;SDS011;745;48.586;10.032;2022-08-03T18:44:44;1.83;;;1.63;;
1507;SDS011;745;48.586;10.032;2022-08-03T18:54:09;1.50;;;1.40;;
1507;SDS011;745;48.586;10.032;2022-08-03T19:03:24;1.60;;;1.50;;
1507;SDS011;745;48.586;10.032;2022-08-03T19:08:00;1.70;;;1.60;;
1507;SDS011;745;48.586;10.032;2022-08-03T19:17:10;1.70;;;1.60;;
1507;SDS011;745;48.586;10.032;2022-08-03T19:21:41;1.70;;;1.60;;
1507;SDS011;745;48.586;10.032;2022-08-03T19:26:14;1.40;;;1.30;;
1507;SDS011;745;48.586;10.032;2022-08-03T19:30:45;1.50;;;1.40;;
1507;SDS011;745;48.586;10.032;2022-08-03T19:35:17;1.60;;;1.50;;
1507;SDS011;745;48.586;10.032;2022-08-03T19:39:48;1.50;;;1.40;;
1507;SDS011;745;48.586;10.032;2022-08-03T19:44:22;1.70;;;1.60;;
1507;SDS011;745;48.586;10.032;2022-08-03T19:48:59;1.60;;;1.50;;
1507;SDS011;745;48.586;10.032;2022-08-03T19:53:35;1.70;;;1.60;;
1507;SDS011;745;48.586;10.032;2022-08-03T19:58:07;1.60;;;1.50;;
1507;SDS011;745;48.586;10.032;2022-08-03T20:02:39;2.50;;;1.47;;
1507;SDS011;745;48.586;10.032;2022-08-03T20:07:10;1.60;;;1.43;;
1507;SDS011;745;48.586;10.032;2022-08-03T20:11:41;1.40;;;1.30;;
1507;SDS011;745;48.586;10.032;2022-08-03T20:16:11;1.60;;;1.50;;
1507;SDS011;745;48.586;10.032;2022-08-03T20:20:42;1.60;;;1.50;;
1507;SDS011;745;48.586;10.032;2022-08-03T20:25:14;1.60;;;1.50;;
1507;SDS011;745;48.586;10.032;2022-08-03T20:29:48;1.60;;;1.50;;
1507;SDS011;745;48.586;10.032;2022-08-03T20:34:18;1.50;;;1.40;;
1507;SDS011;745;48.586;10.032;2022-08-03T20:38:49;1.50;;;1.40;;
1507;SDS011;745;48.586;10.032;2022-08-03T20:43:19;1.63;;;1.53;;
1507;SDS011;745;48.586;10.032;2022-08-03T20:47:50;1.67;;;1.57;;
1507;SDS011;745;48.586;10.032;2022-08-03T20:52:21;1.67;;;1.57;;
1507;SDS011;745;48.586;10.032;2022-08-03T20:56:52;1.57;;;1.47;;
1507;SDS011;745;48.586;10.032;2022-08-03T21:01:23;1.83;;;1.57;;
1507;SDS011;745;48.586;10.032;2022-08-03T21:05:54;1.83;;;1.70;;
1507;SDS011;745;48.586;10.032;2022-08-03T21:10:27;1.63;;;1.53;;
1507;SDS011;745;48.586;10.032;2022-08-03T21:15:01;1.87;;;1.77;;
1507;SDS011;745;48.586;10.032;2022-08-03T21:19:33;1.60;;;1.50;;
1507;SDS011;745;48.586;10.032;2022-08-03T21:24:06;1.70;;;1.60;;
1507;SDS011;745;48.586;10.032;2022-08-03T21:28:39;1.80;;;1.70;;
1507;SDS011;745;48.586;10.032;2022-08-03T21:33:10;1.77;;;1.57;;
1507;SDS011;745;48.586;10.032;2022-08-03T21:37:41;1.57;;;1.47;;
1507;SDS011;745;48.586;10.032;2022-08-03T21:42:12;1.67;;;1.57;;
1507;SDS011;745;48.586;10.032;2022-08-03T21:46:43;1.50;;;1.40;;
1507;SDS011;745;48.586;10.032;2022-08-03T21:51:15;1.73;;;1.63;;
1507;SDS011;745;48.586;10.032;2022-08-03T21:55:53;1.70;;;1.60;;
1507;SDS011;745;48.586;10.032;2022-08-03T22:00:26;1.60;;;1.50;;
1507;SDS011;745;48.586;10.032;2022-08-03T22:04:56;2.33;;;1.80;;
1507;SDS011;745;48.586;10.032;2022-08-03T22:09:27;1.73;;;1.63;;
1507;SDS011;745;48.586;10.032;2022-08-03T22:13:59;1.47;;;1.37;;
1507;SDS011;745;48.586;10.032;2022-08-03T22:18:30;1.70;;;1.60;;
1507;SDS011;745;48.586;10.032;2022-08-03T22:23:01;1.60;;;1.50;;
1507;SDS011;745;48.586;10.032;2022-08-03T22:27:36;1.60;;;1.50;;
1507;SDS011;745;48.586;10.032;2022-08-03T22:32:09;1.60;;;1.50;;
1507;SDS011;745;48.586;10.032;2022-08-03T22:36:40;1.73;;;1.63;;
1507;SDS011;745;48.586;10.032;2022-08-03T22:41:10;2.20;;;2.00;;
1507;SDS011;745;48.586;10.032;2022-08-03T22:45:44;1.73;;;1.63;;
1507;SDS011;745;48.586;10.032;2022-08-03T22:50:16;1.97;;;1.77;;
1507;SDS011;745;48.586;10.032;2022-08-03T22:54:46;1.87;;;1.77;;
1507;SDS011;745;48.586;10.032;2022-08-03T22:59:17;1.70;;;1.60;;
1507;SDS011;745;48.586;10.032;2022-08-03T23:03:50;1.87;;;1.77;;
1507;SDS011;745;48.586;10.032;2022-08-03T23:08:23;1.87;;;1.73;;
1507;SDS011;745;48.586;10.032;2022-08-03T23:12:55;1.40;;;1.30;;
1507;SDS011;745;48.586;10.032;2022-08-03T23:17:29;1.80;;;1.70;;
1507;SDS011;745;48.586;10.032;2022-08-03T23:22:01;1.70;;;1.60;;
1507;SDS011;745;48.586;10.032;2022-08-03T23:26:32;1.80;;;1.70;;
1507;SDS011;745;48.586;10.032;2022-08-03T23:31:03;1.67;;;1.57;;
1507;SDS011;745;48.586;10.032;2022-08-03T23:35:37;1.83;;;1.73;;
1507;SDS011;745;48.586;10.032;2022-08-03T23:40:27;1.73;;;1.63;;
1507;SDS011;745;48.586;10.032;2022-08-03T23:45:00;2.00;;;1.90;;
1507;SDS011;745;48.586;10.032;2022-08-03T23:49:31;2.37;;;2.20;;
